Time;durP1;ratioP1;P1;durP2;ratioP2;P2;SDS_P1;SDS_P2;PMS_P1;PMS_P2;Temp;Humidity;BMP_temperature;BMP_pressure;BME280_temperature;BME280_humidity;BME280_pressure;Samples;Min_cycle;Max_cycle;Signal;HPM_P1;HPM_P2
2021/04/24 00:00:58;;;;;;;17.85;11.15;;;;;;;3.37;64.72;98322.89;1734618;82;21280;-77
2021/04/24 00:03:26;;;;;;;20.55;11.12;;;;;;;3.35;64.98;98317.64;1735499;82;21159;-77
2021/04/24 00:05:54;;;;;;;14.87;9.93;;;;;;;3.32;63.94;98312.38;1731440;82;21151;-77
2021/04/24 00:08:23;;;;;;;19.82;10.18;;;;;;;3.28;64.20;98311.49;1731489;82;21469;-77
2021/04/24 00:10:50;;;;;;;17.48;8.93;;;;;;;3.27;64.10;98318.03;1737222;82;21142;-77
2021/04/24 00:13:18;;;;;;;20.55;9.55;;;;;;;3.19;64.83;98307.97;1736380;82;21647;-77
2021/04/24 00:15:47;;;;;;;18.82;10.35;;;;;;;3.11;64.81;98302.69;1731532;82;21098;-77
2021/04/24 00:18:15;;;;;;;13.90;8.75;;;;;;;3.09;64.71;98306.61;1734935;82;21540;-78
2021/04/24 00:20:43;;;;;;;18.98;9.53;;;;;;;3.08;64.65;98311.41;1732677;82;21134;-77
2021/04/24 00:23:12;;;;;;;17.32;9.25;;;;;;;3.03;64.65;98306.12;1735033;82;21316;-77
2021/04/24 00:25:39;;;;;;;18.55;10.23;;;;;;;3.00;64.95;98305.23;1733742;82;21288;-77
2021/04/24 00:28:10;;;;;;;16.32;9.68;;;;;;;3.00;64.80;98303.48;1732259;82;21288;-77
2021/04/24 00:30:40;;;;;;;18.92;8.90;;;;;;;3.03;65.44;98306.12;1730134;82;21110;-77
2021/04/24 00:33:08;;;;;;;18.95;9.10;;;;;;;3.04;65.34;98296.09;1731542;82;21133;-78
2021/04/24 00:35:38;;;;;;;17.15;9.30;;;;;;;3.09;65.55;98298.75;1735248;82;21158;-77
2021/04/24 00:38:08;;;;;;;20.60;9.75;;;;;;;3.15;65.74;98304.02;1731648;82;21103;-76
2021/04/24 00:40:35;;;;;;;18.70;9.90;;;;;;;3.19;66.36;98298.34;1720863;82;21107;-77
2021/04/24 00:43:04;;;;;;;19.15;9.00;;;;;;;3.27;66.60;98302.31;1709026;84;21150;-77
2021/04/24 00:45:33;;;;;;;17.70;9.95;;;;;;;3.35;67.14;98305.85;1726215;82;21106;-77
2021/04/24 00:48:01;;;;;;;19.70;9.98;;;;;;;3.42;67.37;98302.41;1717221;82;21156;-77
2021/04/24 00:50:35;;;;;;;17.20;9.33;;;;;;;3.54;67.37;98302.00;1715680;82;21146;-77
2021/04/24 00:53:06;;;;;;;20.80;9.60;;;;;;;3.59;66.92;98300.27;1709150;84;21169;-77
2021/04/24 00:55:36;;;;;;;24.10;10.48;;;;;;;3.63;66.68;98299.84;1733521;82;21115;-77
2021/04/24 00:58:08;;;;;;;18.92;10.23;;;;;;;3.65;66.44;98303.36;1744164;82;21469;-77
2021/04/24 01:00:35;;;;;;;17.32;9.50;;;;;;;3.65;65.96;98305.98;1757113;82;21486;-77
2021/04/24 01:03:03;;;;;;;20.82;9.85;;;;;;;3.65;65.67;98300.28;1747064;82;21110;-77
2021/04/24 01:05:39;;;;;;;17.00;8.40;;;;;;;3.63;65.58;98297.22;1745603;82;21098;-77
2021/04/24 01:08:08;;;;;;;18.27;9.20;;;;;;;3.59;65.55;98294.14;1754166;82;21131;-77
2021/04/24 01:10:40;;;;;;;14.98;9.25;;;;;;;3.54;65.08;98297.62;1732956;83;21102;-77
2021/04/24 01:13:08;;;;;;;15.30;9.08;;;;;;;3.51;65.62;98298.94;1723011;83;21252;-77
2021/04/24 01:15:37;;;;;;;17.85;8.85;;;;;;;3.46;65.35;98293.23;1725756;83;21481;-77
2021/04/24 01:18:09;;;;;;;16.27;8.90;;;;;;;3.40;65.17;98285.78;1706222;84;21111;-77
2021/04/24 01:20:39;;;;;;;15.20;8.73;;;;;;;3.37;65.00;98292.77;1705227;84;21454;-77
2021/04/24 01:23:09;;;;;;;20.23;8.78;;;;;;;3.27;64.96;98297.95;1705252;84;21149;-77
2021/04/24 01:25:41;;;;;;;23.25;10.28;;;;;;;3.14;65.91;98294.83;1706157;83;21158;-78
2021/04/24 01:28:09;;;;;;;21.93;10.10;;;;;;;3.02;65.47;98300.45;1756709;81;21119;-77
2021/04/24 01:30:43;;;;;;;15.95;9.10;;;;;;;2.91;65.89;98294.28;1728191;83;21135;-77
2021/04/24 01:33:14;;;;;;;;;;;;;;;2.84;65.44;98292.48;1759258;82;21119;-77
2021/04/24 01:35:44;;;;;;;17.50;8.15;;;;;;;2.79;65.16;98292.47;1720385;83;20117;-76
2021/04/24 01:38:12;;;;;;;16.82;8.85;;;;;;;2.71;66.30;98291.53;1733543;82;21149;-76
2021/04/24 01:40:41;;;;;;;19.75;8.90;;;;;;;2.71;65.59;98293.73;1731845;82;21150;-77
2021/04/24 01:43:10;;;;;;;15.60;8.73;;;;;;;2.70;66.21;98307.66;1711742;82;21273;-76
2021/04/24 01:45:38;;;;;;;21.02;8.08;;;;;;;2.66;65.86;98300.67;1711323;84;21666;-77
2021/04/24 01:48:07;;;;;;;17.20;8.75;;;;;;;2.67;65.89;98302.41;1711131;84;21176;-79
2021/04/24 01:50:39;;;;;;;16.60;8.25;;;;;;;2.61;66.63;98301.04;1711136;84;21163;-77
2021/04/24 01:53:15;;;;;;;16.15;8.40;;;;;;;2.55;66.27;98304.92;1728864;82;21107;-77
2021/04/24 01:55:44;;;;;;;17.82;8.65;;;;;;;2.54;66.64;98315.84;1739795;82;21131;-78
2021/04/24 01:58:19;;;;;;;17.55;8.05;;;;;;;2.37;67.70;98307.86;1756447;82;21146;-77
2021/04/24 02:00:57;;;;;;;15.48;8.58;;;;;;;2.27;68.72;98310.81;1711982;83;21100;-77
2021/04/24 02:03:29;;;;;;;20.27;8.33;;;;;;;2.23;67.46;98312.53;1724736;83;21096;-77
2021/04/24 02:05:59;;;;;;;16.00;8.73;;;;;;;2.22;67.14;98306.86;1714142;83;21104;-77
2021/04/24 02:08:38;;;;;;;15.13;8.15;;;;;;;2.21;66.93;98305.53;1726537;83;21478;-77
2021/04/24 02:11:07;;;;;;;20.02;8.68;;;;;;;2.22;66.78;98302.94;1724119;82;21123;-78
2021/04/24 02:13:42;;;;;;;13.72;7.80;;;;;;;2.19;66.93;98303.31;1716421;82;21461;-78
2021/04/24 02:16:13;;;;;;;16.30;7.80;;;;;;;2.19;67.10;98300.70;1756348;82;21445;-78
2021/04/24 02:18:43;;;;;;;13.72;7.28;;;;;;;2.20;67.71;98305.09;1756689;82;21535;-78
2021/04/24 02:21:11;;;;;;;17.37;8.05;;;;;;;2.09;69.41;98303.67;1756456;82;21123;-78
2021/04/24 02:23:39;;;;;;;15.23;8.18;;;;;;;2.03;67.77;98295.33;1755385;82;21453;-78
2021/04/24 02:26:10;;;;;;;16.05;7.67;;;;;;;1.94;68.43;98302.66;1754365;81;21091;-78
2021/04/24 02:28:37;;;;;;;14.07;7.67;;;;;;;1.90;68.17;98302.59;1751486;81;21114;-78
2021/04/24 02:31:05;;;;;;;15.38;8.10;;;;;;;1.92;68.17;98302.20;1747457;81;21487;-77
2021/04/24 02:33:32;;;;;;;14.25;8.15;;;;;;;1.86;69.72;98301.70;1689201;84;21509;-77
2021/04/24 02:36:01;;;;;;;14.47;8.60;;;;;;;1.87;68.28;98299.97;1723703;82;21117;-78
2021/04/24 02:38:32;;;;;;;15.38;8.13;;;;;;;1.90;67.93;98294.76;1746651;82;21114;-78
2021/04/24 02:41:05;;;;;;;16.42;8.30;;;;;;;1.89;68.20;98300.85;1728309;82;21122;-77
2021/04/24 02:43:33;;;;;;;18.80;7.55;;;;;;;1.87;68.11;98303.45;1711187;84;21474;-77
2021/04/24 02:46:00;;;;;;;15.63;7.90;;;;;;;1.87;68.04;98306.06;1712573;83;21288;-77
2021/04/24 02:48:28;;;;;;;23.32;10.25;;;;;;;1.86;68.80;98304.31;1742172;82;21118;-77
2021/04/24 02:50:58;;;;;;;15.43;8.45;;;;;;;1.84;68.37;98293.84;1713294;83;21126;-77
2021/04/24 02:53:35;;;;;;;15.63;8.10;;;;;;;1.84;68.05;98291.22;1730229;82;21134;-79
2021/04/24 02:56:10;;;;;;;15.10;8.08;;;;;;;1.83;68.71;98292.09;1716934;83;21126;-78
2021/04/24 02:58:37;;;;;;;14.93;7.20;;;;;;;1.82;67.97;98290.76;1714344;84;21141;-78
2021/04/24 03:01:05;;;;;;;12.47;7.20;;;;;;;1.83;67.92;98296.01;1714799;82;21272;-79
2021/04/24 03:03:32;;;;;;;17.10;7.00;;;;;;;1.81;67.87;98290.32;1723570;82;21114;-77
2021/04/24 03:06:00;;;;;;;13.93;7.00;;;;;;;1.77;67.90;98290.73;1759731;81;21146;-78
2021/04/24 03:08:28;;;;;;;14.10;7.28;;;;;;;1.76;67.99;98295.93;1741279;82;21500;-78
2021/04/24 03:10:56;;;;;;;14.45;7.45;;;;;;;1.71;67.96;98304.59;1717395;82;21157;-77
2021/04/24 03:13:27;;;;;;;13.70;8.10;;;;;;;1.66;68.17;98295.83;1717004;84;21290;-77
2021/04/24 03:16:01;;;;;;;12.63;7.58;;;;;;;1.67;68.33;98309.78;1717554;82;21258;-77
2021/04/24 03:18:28;;;;;;;12.70;7.45;;;;;;;1.64;68.28;98304.52;1735849;82;21154;-77
2021/04/24 03:20:56;;;;;;;14.55;6.80;;;;;;;1.62;68.29;98312.33;1743307;82;21156;-77
2021/04/24 03:23:23;;;;;;;14.45;7.00;;;;;;;1.62;68.64;98308.85;1753210;81;21107;-77
2021/04/24 03:25:51;;;;;;;17.37;7.62;;;;;;;1.61;68.38;98313.64;1748431;81;21481;-78
2021/04/24 03:28:18;;;;;;;14.38;7.62;;;;;;;1.58;69.06;98314.48;1761018;81;21107;-78
2021/04/24 03:30:46;;;;;;;13.08;7.58;;;;;;;1.62;68.63;98316.24;1760141;81;21147;-78
2021/04/24 03:33:15;;;;;;;15.38;7.05;;;;;;;1.61;68.82;98327.56;1740294;82;21284;-78
2021/04/24 03:35:42;;;;;;;17.98;9.28;;;;;;;1.57;69.26;98326.66;1737155;83;21153;-78
2021/04/24 03:38:10;;;;;;;13.10;7.67;;;;;;;1.61;68.99;98314.95;1737310;83;21288;-78
2021/04/24 03:40:38;;;;;;;14.07;6.75;;;;;;;1.61;69.00;98322.78;1742413;81;21118;-78
2021/04/24 03:43:06;;;;;;;13.80;7.20;;;;;;;1.62;68.77;98325.39;1761009;81;21117;-78
2021/04/24 03:45:35;;;;;;;16.45;7.70;;;;;;;1.66;68.81;98328.94;1740373;82;21305;-78
2021/04/24 03:48:04;;;;;;;13.05;6.70;;;;;;;1.68;68.83;98327.20;1763207;81;21127;-78
2021/04/24 03:50:32;;;;;;;13.58;6.78;;;;;;;1.68;69.07;98332.02;1762109;81;21110;-78
2021/04/24 03:52:59;;;;;;;17.10;8.33;;;;;;;1.67;69.58;98328.93;1747526;81;21090;-78
2021/04/24 03:55:27;;;;;;;19.42;8.80;;;;;;;1.61;69.67;98338.01;1737159;83;21283;-78
2021/04/24 03:57:55;;;;;;;15.75;8.85;;;;;;;1.59;69.72;98342.35;1737056;82;21107;-78
2021/04/24 04:00:29;;;;;;;15.55;8.38;;;;;;;1.55;69.58;98338.84;1737135;83;21150;-78
2021/04/24 04:03:01;;;;;;;16.55;8.00;;;;;;;1.52;70.22;98347.03;1755092;81;21139;-77
2021/04/24 04:05:32;;;;;;;19.15;8.18;;;;;;;1.50;69.32;98343.09;1769409;81;21308;-77
2021/04/24 04:08:00;;;;;;;13.55;7.92;;;;;;;1.55;70.04;98353.20;1740335;82;21256;-77
2021/04/24 04:10:29;;;;;;;15.80;7.87;;;;;;;1.56;70.22;98345.80;1752990;81;21114;-78
2021/04/24 04:12:57;;;;;;;15.75;8.03;;;;;;;1.58;70.17;98357.14;1742121;81;21124;-78
2021/04/24 04:15:27;;;;;;;17.27;7.12;;;;;;;1.64;69.61;98361.98;1737361;83;21641;-78
2021/04/24 04:18:14;;;;;;;15.30;7.80;;;;;;;1.64;69.78;98360.69;1737191;83;21148;-78
2021/04/24 04:20:52;;;;;;;13.88;7.65;;;;;;;1.69;69.22;98360.31;1746743;81;21229;-77
2021/04/24 04:23:24;;;;;;;15.03;7.67;;;;;;;1.74;69.09;98357.77;1770882;81;21484;-77
2021/04/24 04:25:55;;;;;;;17.10;6.85;;;;;;;1.78;69.19;98367.41;1764699;81;21498;-77
2021/04/24 04:28:22;;;;;;;13.88;7.03;;;;;;;1.81;69.10;98364.80;1755438;81;21163;-78
2021/04/24 04:30:52;;;;;;;13.95;7.47;;;;;;;1.86;68.72;98369.66;1737658;82;21131;-77
2021/04/24 04:33:20;;;;;;;13.72;6.62;;;;;;;1.92;68.70;98377.59;1711399;82;21094;-78
2021/04/24 04:35:49;;;;;;;13.95;6.95;;;;;;;1.96;68.77;98381.97;1721736;83;21156;-78
2021/04/24 04:38:17;;;;;;;14.28;7.50;;;;;;;2.16;68.35;98380.00;1717236;83;21506;-78
2021/04/24 04:40:45;;;;;;;17.12;8.50;;;;;;;2.18;67.93;98382.63;1716005;82;21159;-78
2021/04/24 04:43:14;;;;;;;44.20;19.50;;;;;;;2.19;67.84;98386.58;1691252;83;21139;-78
2021/04/24 04:45:42;;;;;;;12.65;7.50;;;;;;;2.24;67.68;98386.61;1717265;83;21132;-78
2021/04/24 04:48:11;;;;;;;11.63;6.97;;;;;;;2.26;67.66;98384.91;1717415;83;21143;-79
2021/04/24 04:50:39;;;;;;;14.98;7.03;;;;;;;2.31;67.99;98390.17;1724704;82;21150;-79
2021/04/24 04:53:08;;;;;;;12.20;7.37;;;;;;;2.34;67.70;98389.80;1757028;82;21127;-79
2021/04/24 04:55:37;;;;;;;12.05;6.53;;;;;;;2.38;67.37;98386.77;1741588;82;21138;-79
2021/04/24 04:58:05;;;;;;;13.78;6.97;;;;;;;2.42;67.23;98386.36;1714541;83;21142;-79
2021/04/24 05:00:33;;;;;;;12.25;6.47;;;;;;;2.45;67.01;98389.02;1716225;82;21149;-79
2021/04/24 05:03:01;;;;;;;11.93;7.08;;;;;;;2.46;66.86;98392.08;1705738;84;21146;-79
2021/04/24 05:05:31;;;;;;;15.68;7.17;;;;;;;2.49;66.75;98396.89;1705656;84;21170;-79
2021/04/24 05:07:59;;;;;;;10.58;7.33;;;;;;;2.51;66.78;98389.06;1705601;84;21309;-79
2021/04/24 05:10:27;;;;;;;14.05;7.17;;;;;;;2.56;66.62;98396.94;1706701;82;21119;-79
2021/04/24 05:12:54;;;;;;;14.20;7.00;;;;;;;2.56;66.80;98395.64;1757155;82;21127;-79
2021/04/24 05:15:22;;;;;;;20.62;8.45;;;;;;;2.58;66.64;98389.55;1747060;82;21158;-79
2021/04/24 05:17:52;;;;;;;10.05;6.60;;;;;;;2.61;66.88;98394.83;1747072;82;21122;-78
2021/04/24 05:20:20;;;;;;;18.23;8.15;;;;;;;2.67;66.72;98391.39;1745222;82;21110;-78
2021/04/24 05:22:48;;;;;;;16.42;7.65;;;;;;;2.72;67.02;98391.42;1712266;83;21504;-79
2021/04/24 05:25:18;;;;;;;19.07;8.75;;;;;;;2.76;67.41;98392.78;1717369;83;21134;-79
2021/04/24 05:27:47;;;;;;;17.98;7.90;;;;;;;2.86;66.93;98392.86;1716855;83;21144;-79
2021/04/24 05:30:16;;;;;;;16.80;8.70;;;;;;;2.93;66.84;98397.69;1713496;84;21483;-78
2021/04/24 05:32:44;;;;;;;15.65;8.40;;;;;;;3.01;66.50;98393.39;1716407;83;21165;-79
2021/04/24 05:35:16;;;;;;;18.12;7.60;;;;;;;3.08;66.55;98393.90;1714535;84;21509;-79
2021/04/24 05:37:44;;;;;;;15.88;7.92;;;;;;;3.18;66.42;98400.06;1714539;83;21146;-79
2021/04/24 05:40:12;;;;;;;16.55;7.87;;;;;;;3.29;66.07;98393.59;1714547;83;21130;-79
2021/04/24 05:42:43;;;;;;;15.95;8.13;;;;;;;3.39;66.28;98384.92;1688500;83;21118;-79
2021/04/24 05:45:14;;;;;;;17.70;8.08;;;;;;;3.50;65.73;98396.77;1657047;85;21163;-79
2021/04/24 05:47:45;;;;;;;14.40;7.58;;;;;;;3.60;65.78;98388.94;1684614;85;21146;-79
2021/04/24 05:50:20;;;;;;;16.90;8.13;;;;;;;3.69;65.54;98391.17;1705065;83;21185;-79
2021/04/24 05:52:50;;;;;;;18.50;7.90;;;;;;;3.84;65.27;98399.98;1719320;82;21092;-79
2021/04/24 05:55:22;;;;;;;23.05;11.35;;;;;;;3.96;65.18;98403.09;1718042;83;21464;-79
2021/04/24 05:57:50;;;;;;;42.53;21.12;;;;;;;4.07;65.01;98397.43;1680552;85;21107;-79
2021/04/24 06:00:21;;;;;;;17.65;7.92;;;;;;;4.19;64.94;98390.03;1721956;81;21257;-79
2021/04/24 06:02:49;;;;;;;14.85;6.83;;;;;;;4.30;64.68;98389.19;1741832;81;21093;-79
2021/04/24 06:05:17;;;;;;;11.20;6.70;;;;;;;4.40;64.68;98386.16;1731448;82;21133;-79
2021/04/24 06:07:46;;;;;;;13.13;6.95;;;;;;;4.52;64.43;98386.61;1725949;82;21136;-79
2021/04/24 06:10:19;;;;;;;12.28;6.87;;;;;;;4.65;64.33;98383.09;1724228;81;21491;-79
2021/04/24 06:12:49;;;;;;;17.48;6.87;;;;;;;4.77;64.19;98386.63;1720462;82;21119;-78
2021/04/24 06:15:23;;;;;;;11.45;6.42;;;;;;;4.88;64.05;98382.23;1741359;82;21469;-78
2021/04/24 06:17:51;;;;;;;13.18;7.10;;;;;;;5.03;63.78;98381.37;1731670;82;21432;-78
2021/04/24 06:20:19;;;;;;;11.65;6.40;;;;;;;5.20;63.56;98374.78;1729335;82;21110;-78
2021/04/24 06:22:48;;;;;;;11.85;6.30;;;;;;;5.31;63.34;98369.94;1742207;82;21137;-78
2021/04/24 06:25:19;;;;;;;11.48;6.75;;;;;;;5.43;62.88;98372.52;1741515;82;21509;-75
2021/04/24 06:27:48;;;;;;;15.85;6.70;;;;;;;5.52;62.93;98377.75;1739525;82;21134;-78
2021/04/24 06:30:19;;;;;;;14.15;7.47;;;;;;;5.64;62.32;98370.69;1740290;82;21297;-78
2021/04/24 06:32:50;;;;;;;10.58;5.97;;;;;;;5.74;61.67;98371.55;1740339;81;21113;-75
2021/04/24 06:35:21;;;;;;;12.43;6.50;;;;;;;5.91;59.83;98372.80;1766919;81;21276;-77
2021/04/24 06:37:59;;;;;;;12.50;6.60;;;;;;;6.07;61.29;98367.91;1744209;81;21683;-77
2021/04/24 06:40:28;;;;;;;9.78;5.90;;;;;;;6.22;60.59;98375.28;1755301;81;21141;-77
2021/04/24 06:42:56;;;;;;;11.45;6.55;;;;;;;6.35;58.76;98370.81;1750793;81;21262;-77
2021/04/24 06:45:24;;;;;;;17.62;7.67;;;;;;;6.45;58.87;98369.87;1737272;83;21146;-77
2021/04/24 06:47:53;;;;;;;10.35;5.58;;;;;;;6.55;58.58;98366.74;1737764;81;21282;-77
2021/04/24 06:50:21;;;;;;;11.97;6.30;;;;;;;6.65;57.27;98363.61;1737836;81;21364;-78
2021/04/24 06:52:51;;;;;;;14.63;6.37;;;;;;;6.75;58.40;98364.39;1737573;82;21160;-78
2021/04/24 06:55:22;;;;;;;11.12;5.60;;;;;;;6.83;58.47;98366.53;1766472;81;21091;-79
2021/04/24 06:57:50;;;;;;;10.82;5.45;;;;;;;6.91;58.33;98369.10;1768837;81;21134;-77
2021/04/24 07:00:24;;;;;;;11.33;5.53;;;;;;;7.06;54.62;98368.07;1738140;81;21616;-77
2021/04/24 07:02:52;;;;;;;8.95;5.30;;;;;;;7.19;52.29;98360.91;1740343;82;21134;-77
2021/04/24 07:05:20;;;;;;;9.20;6.10;;;;;;;7.29;53.66;98366.98;1767473;81;21123;-77
2021/04/24 07:07:48;;;;;;;11.22;4.97;;;;;;;7.37;50.37;98367.78;1766711;81;21262;-77
2021/04/24 07:10:16;;;;;;;7.40;4.45;;;;;;;7.47;51.32;98359.78;1754652;81;21722;-78
2021/04/24 07:12:46;;;;;;;8.58;4.72;;;;;;;7.61;47.76;98365.77;1719380;82;21277;-78
2021/04/24 07:15:14;;;;;;;9.30;4.80;;;;;;;7.68;48.61;98360.42;1737333;83;21621;-77
2021/04/24 07:17:43;;;;;;;8.18;5.03;;;;;;;7.76;47.64;98362.49;1754935;81;21083;-77
2021/04/24 07:20:13;;;;;;;8.65;4.55;;;;;;;7.83;48.64;98358.91;1761423;81;21493;-77
2021/04/24 07:22:42;;;;;;;6.90;4.37;;;;;;;7.91;48.99;98363.64;1767482;81;21127;-77
2021/04/24 07:25:12;;;;;;;6.15;4.08;;;;;;;8.03;49.15;98368.33;1766351;81;21111;-78
2021/04/24 07:27:40;;;;;;;7.95;3.62;;;;;;;8.10;43.47;98365.16;1751378;81;21248;-78
2021/04/24 07:30:10;;;;;;;6.65;3.70;;;;;;;8.15;44.42;98363.33;1764877;81;21166;-78
2021/04/24 07:32:40;;;;;;;5.65;3.00;;;;;;;8.24;44.77;98359.25;1764957;81;21253;-79
2021/04/24 07:35:10;;;;;;;6.83;3.92;;;;;;;8.34;42.54;98359.12;1747880;81;21125;-77
2021/04/24 07:37:37;;;;;;;9.35;4.40;;;;;;;8.39;44.70;98362.09;1741166;81;21126;-77
2021/04/24 07:40:07;;;;;;;9.35;4.17;;;;;;;8.45;44.71;98362.46;1736394;82;21262;-78
2021/04/24 07:42:34;;;;;;;9.00;3.67;;;;;;;8.48;45.19;98357.14;1734213;83;21143;-78
2021/04/24 07:45:04;;;;;;;6.47;3.70;;;;;;;8.55;46.08;98366.73;1734948;81;21153;-78
2021/04/24 07:47:32;;;;;;;7.28;4.37;;;;;;;8.63;45.10;98361.80;1734320;83;21276;-77
2021/04/24 07:50:00;;;;;;;8.95;4.42;;;;;;;8.68;45.93;98357.31;1734645;82;21289;-78
2021/04/24 07:52:29;;;;;;;8.43;4.50;;;;;;;8.71;44.61;98350.64;1706593;82;21122;-81
2021/04/24 07:55:02;;;;;;;;;;;;;;;8.81;45.81;98348.27;1752248;81;21250;-80
2021/04/24 07:57:30;;;;;;;9.90;4.25;;;;;;;8.91;46.71;98356.92;1734575;83;20361;-81
2021/04/24 07:59:58;;;;;;;6.62;3.85;;;;;;;8.97;46.43;98354.17;1734617;83;21620;-81
2021/04/24 08:02:26;;;;;;;8.70;4.67;;;;;;;9.04;46.04;98347.44;1734670;83;21168;-80
2021/04/24 08:04:53;;;;;;;9.48;5.58;;;;;;;9.21;46.40;98346.70;1708558;83;21134;-77
2021/04/24 08:07:21;;;;;;;12.07;6.25;;;;;;;9.33;43.96;98343.39;1734553;83;21287;-78
2021/04/24 08:09:52;;;;;;;10.65;5.45;;;;;;;9.38;43.44;98343.74;1734384;83;21257;-78
2021/04/24 08:12:20;;;;;;;9.73;4.72;;;;;;;9.44;42.63;98349.81;1734503;83;21276;-78
2021/04/24 08:14:48;;;;;;;9.78;5.30;;;;;;;9.48;42.72;98344.42;1735094;81;21466;-78
2021/04/24 08:17:17;;;;;;;7.55;5.03;;;;;;;9.54;42.28;98346.55;1744707;81;21119;-77
2021/04/24 08:19:44;;;;;;;11.18;4.70;;;;;;;9.50;40.04;98345.72;1742028;81;21265;-77
2021/04/24 08:22:12;;;;;;;6.00;4.47;;;;;;;9.50;41.63;98337.78;1737791;81;21496;-79
2021/04/24 08:24:40;;;;;;;11.97;4.92;;;;;;;9.60;43.08;98341.13;1748132;81;21237;-78
2021/04/24 08:27:09;;;;;;;7.30;4.37;;;;;;;9.69;43.43;98334.77;1745138;81;21608;-79
2021/04/24 08:29:37;;;;;;;8.38;4.08;;;;;;;9.82;44.51;98336.70;1736102;81;21126;-78
2021/04/24 08:32:05;;;;;;;7.78;4.42;;;;;;;9.95;42.46;98336.88;1720117;82;21485;-78
2021/04/24 08:34:43;;;;;;;9.08;4.37;;;;;;;10.01;41.96;98335.88;1708212;82;21118;-78
2021/04/24 08:37:12;;;;;;;6.58;4.33;;;;;;;10.06;41.87;98337.97;1715735;82;21271;-79
2021/04/24 08:39:57;;;;;;;8.05;4.75;;;;;;;10.24;42.75;98334.04;1767504;79;23713;-80
2021/04/24 08:42:24;;;;;;;6.55;4.12;;;;;;;10.28;40.95;98340.13;1745991;80;21119;-80
2021/04/24 08:44:53;;;;;;;7.85;4.30;;;;;;;10.29;40.26;98337.45;1724701;82;21488;-79
2021/04/24 08:47:23;;;;;;;8.65;4.20;;;;;;;10.28;40.73;98342.78;1724800;82;21143;-79
2021/04/24 08:49:53;;;;;;;7.10;4.05;;;;;;;10.29;40.40;98337.89;1725985;82;21179;-78
2021/04/24 08:52:22;;;;;;;5.35;4.37;;;;;;;10.40;41.47;98334.56;1727114;82;21281;-80
2021/04/24 08:54:52;;;;;;;7.90;3.90;;;;;;;10.61;40.78;98327.03;1723620;83;21217;-80
2021/04/24 08:57:20;;;;;;;6.12;3.62;;;;;;;10.83;40.17;98328.69;1723009;83;21194;-80
2021/04/24 08:59:47;;;;;;;5.75;3.10;;;;;;;10.98;35.97;98323.02;1724395;82;22227;-80
2021/04/24 09:02:15;;;;;;;5.45;2.92;;;;;;;11.09;36.85;98311.70;1724827;83;21111;-80
2021/04/24 09:04:43;;;;;;;5.83;4.00;;;;;;;11.28;35.54;98315.16;1750902;80;21181;-80
2021/04/24 09:07:10;;;;;;;7.00;4.30;;;;;;;11.43;36.05;98319.19;1723221;83;21205;-80
2021/04/24 09:09:39;;;;;;;7.08;4.50;;;;;;;11.60;36.84;98310.30;1725384;82;21170;-78
2021/04/24 09:12:07;;;;;;;7.67;4.35;;;;;;;11.80;37.60;98313.28;1725704;82;21138;-78
2021/04/24 09:14:35;;;;;;;7.33;3.80;;;;;;;12.00;36.00;98304.73;1724183;82;21131;-78
2021/04/24 09:17:04;;;;;;;5.58;3.25;;;;;;;12.20;36.80;98313.43;1724114;83;21209;-78
2021/04/24 09:19:35;;;;;;;6.17;2.90;;;;;;;12.38;37.11;98305.80;1730178;82;21500;-78
2021/04/24 09:22:23;;;;;;;5.87;2.72;;;;;;;12.51;31.41;98296.49;1748232;82;21240;-78
2021/04/24 09:24:54;;;;;;;6.22;2.65;;;;;;;12.45;29.25;98289.20;1754524;82;21123;-80
2021/04/24 09:27:46;;;;;;;5.83;3.67;;;;;;;12.49;30.32;98293.03;1754560;82;21294;-80
2021/04/24 09:30:27;;;;;;;7.22;3.98;;;;;;;12.64;32.64;98297.43;1752504;81;21266;-78
2021/04/24 09:33:02;;;;;;;7.33;4.20;;;;;;;12.77;32.70;98281.93;1752233;82;21241;-80
2021/04/24 09:35:47;;;;;;;5.17;3.70;;;;;;;12.90;33.88;98288.58;1754049;81;21292;-78
2021/04/24 09:38:31;;;;;;;6.50;3.95;;;;;;;12.93;32.70;98287.16;1754877;81;21170;-80
2021/04/24 09:41:19;;;;;;;5.33;3.80;;;;;;;12.91;33.61;98278.34;1755347;82;21122;-80
2021/04/24 09:44:04;;;;;;;7.67;3.85;;;;;;;12.89;34.00;98272.22;1729243;82;21102;-79
2021/04/24 09:46:56;;;;;;;8.55;4.58;;;;;;;12.88;34.63;98275.77;1725685;83;21142;-78
2021/04/24 09:49:31;;;;;;;7.47;4.30;;;;;;;12.96;35.31;98271.55;1725457;83;21139;-79
2021/04/24 09:52:05;;;;;;;6.40;4.10;;;;;;;13.08;32.63;98275.53;1728427;82;21159;-79
2021/04/24 09:54:42;;;;;;;7.70;4.55;;;;;;;13.07;31.63;98273.36;1754400;82;21099;-79
2021/04/24 09:57:19;;;;;;;8.65;4.25;;;;;;;13.03;33.37;98262.86;1754929;82;21104;-79
2021/04/24 10:00:02;;;;;;;6.42;3.58;;;;;;;13.00;31.20;98261.66;1754527;82;21524;-79
2021/04/24 10:02:45;;;;;;;5.58;3.55;;;;;;;13.17;34.06;98265.05;1743070;82;21107;-79
2021/04/24 10:05:19;;;;;;;6.28;3.50;;;;;;;13.27;32.48;98263.79;1725043;83;21154;-79
2021/04/24 10:07:53;;;;;;;5.25;3.02;;;;;;;13.25;31.84;98258.97;1726776;82;21115;-80
2021/04/24 10:10:35;;;;;;;5.97;3.27;;;;;;;13.24;31.06;98259.05;1725181;83;21130;-80
2021/04/24 10:13:08;;;;;;;7.65;3.67;;;;;;;13.36;31.34;98254.59;1752179;80;21123;-79
2021/04/24 10:15:46;;;;;;;6.72;3.22;;;;;;;13.37;29.26;98254.98;1740905;80;21102;-79
2021/04/24 10:18:16;;;;;;;4.60;3.10;;;;;;;13.34;29.46;98248.47;1754744;80;21110;-80
2021/04/24 10:20:47;;;;;;;4.67;3.27;;;;;;;13.37;30.59;98240.83;1754468;82;21122;-80
2021/04/24 10:23:16;;;;;;;5.95;3.70;;;;;;;13.64;31.70;98250.05;1754788;82;21115;-79
2021/04/24 10:25:44;;;;;;;8.20;3.37;;;;;;;13.78;31.23;98239.74;1744531;82;21135;-80
2021/04/24 10:28:12;;;;;;;5.35;3.40;;;;;;;13.62;30.33;98242.13;1727477;82;21162;-79
2021/04/24 10:30:40;;;;;;;5.80;3.12;;;;;;;13.74;32.04;98247.44;1754777;82;21138;-79
2021/04/24 10:33:08;;;;;;;6.53;3.70;;;;;;;13.87;31.87;98243.84;1755169;82;21130;-79
2021/04/24 10:35:36;;;;;;;5.50;3.60;;;;;;;13.95;32.12;98236.91;1754569;82;21181;-79
2021/04/24 10:38:06;;;;;;;5.15;3.80;;;;;;;14.21;31.33;98228.31;1780295;80;21171;-79
2021/04/24 10:40:37;;;;;;;8.45;4.25;;;;;;;14.34;31.09;98233.56;1754542;82;21151;-78
2021/04/24 10:43:05;;;;;;;6.30;3.60;;;;;;;14.80;31.21;98218.36;1752769;82;21107;-79
2021/04/24 10:45:35;;;;;;;8.33;4.37;;;;;;;16.24;30.26;98210.94;1754967;81;21131;-79
2021/04/24 10:48:04;;;;;;;6.22;4.00;;;;;;;17.41;27.65;98217.89;1754512;82;21171;-79
2021/04/24 10:50:45;;;;;;;5.03;3.77;;;;;;;18.26;26.11;98210.14;1740167;80;21194;-80
2021/04/24 10:53:25;;;;;;;6.80;4.10;;;;;;;19.01;27.20;98199.05;1786054;80;21257;-79
2021/04/24 10:55:56;;;;;;;6.28;3.75;;;;;;;19.41;24.77;98206.50;1716931;84;21299;-80
2021/04/24 10:58:27;;;;;;;6.45;4.00;;;;;;;19.81;24.51;98197.74;1754015;81;21116;-79
2021/04/24 11:01:01;;;;;;;6.55;4.25;;;;;;;20.77;23.90;98200.01;1754655;82;21099;-78
2021/04/24 11:03:40;;;;;;;;;;;;;;;20.57;21.96;98196.84;1754236;82;21174;-80
2021/04/24 11:06:30;;;;;;;5.47;3.83;;;;;;;20.24;21.83;98194.56;1743296;82;20127;-80
2021/04/24 11:09:18;;;;;;;7.45;4.40;;;;;;;21.29;21.32;98189.78;1751839;82;21122;-81
2021/04/24 11:11:50;;;;;;;6.78;3.72;;;;;;;21.99;20.48;98197.81;1709815;82;21134;-80
2021/04/24 11:14:19;;;;;;;5.05;3.70;;;;;;;22.33;19.72;98190.38;1741344;82;21110;-81
2021/04/24 11:16:54;;;;;;;6.80;4.20;;;;;;;22.90;20.49;98185.70;1747569;82;21440;-80
2021/04/24 11:19:45;;;;;;;6.92;3.92;;;;;;;23.38;20.17;98177.08;1748374;82;21165;-80
2021/04/24 11:22:38;;;;;;;6.28;3.50;;;;;;;23.96;20.02;98175.54;1747543;82;21468;-81
2021/04/24 11:25:27;;;;;;;5.75;3.62;;;;;;;24.59;19.47;98170.45;1755956;80;21117;-81
2021/04/24 11:28:10;;;;;;;4.10;3.70;;;;;;;23.92;18.47;98182.19;1767594;80;21078;-80
2021/04/24 11:30:57;;;;;;;8.68;4.15;;;;;;;22.54;19.45;98178.48;1762605;80;21141;-81
2021/04/24 11:33:54;;;;;;;6.72;3.92;;;;;;;21.84;20.33;98189.50;1726517;82;21159;-79
2021/04/24 11:36:30;;;;;;;6.50;4.12;;;;;;;20.93;21.99;98190.90;1683223;85;21124;-80
2021/04/24 11:39:07;;;;;;;4.78;3.55;;;;;;;20.34;21.74;98181.38;1676100;85;21488;-80
2021/04/24 11:41:43;;;;;;;6.12;3.60;;;;;;;18.56;22.00;98185.64;1676073;86;21182;-80
2021/04/24 11:44:29;;;;;;;6.20;3.60;;;;;;;18.26;23.67;98182.47;1650424;86;21170;-80
2021/04/24 11:46:59;;;;;;;8.55;4.22;;;;;;;18.14;23.88;98186.73;1675160;86;21162;-80
2021/04/24 11:49:30;;;;;;;6.28;3.72;;;;;;;17.88;24.61;98183.66;1688515;85;21501;-80
2021/04/24 11:52:10;;;;;;;6.12;3.72;;;;;;;17.48;24.80;98184.94;1684478;85;21147;-79